createdAt,value
2023-03-24T00:01:28.627Z,73.29
2023-03-24T00:06:54.422Z,73.14
2023-03-24T00:12:19.046Z,73.15
2023-03-24T00:17:43.301Z,73.05
2023-03-24T00:23:08.605Z,73.07
2023-03-24T00:28:37.279Z,73.11
2023-03-24T00:34:03.166Z,73.39
2023-03-24T00:39:27.188Z,73.59
2023-03-24T00:44:54.213Z,73.91
2023-03-24T00:50:20.936Z,74.05
2023-03-24T00:55:48.512Z,73.95
2023-03-24T01:01:13.305Z,73.75
2023-03-24T01:06:38.208Z,73.53
2023-03-24T01:12:05.927Z,73.26
2023-03-24T01:17:30.023Z,73.32
2023-03-24T01:22:54.155Z,73.29
2023-03-24T01:28:24.796Z,73.39
2023-03-24T01:33:49.390Z,73.24
2023-03-24T01:39:13.101Z,73.20
2023-03-24T01:44:38.767Z,73.17
2023-03-24T01:50:05.545Z,73.17
2023-03-24T01:55:32.503Z,73.00
2023-03-24T02:00:58.463Z,72.94
2023-03-24T02:06:49.468Z,72.99
2023-03-24T02:12:14.468Z,72.92
2023-03-24T02:17:45.527Z,72.91
2023-03-24T02:23:35.009Z,72.99
2023-03-24T02:29:48.355Z,73.04
2023-03-24T02:35:36.148Z,73.24
2023-03-24T02:41:18.341Z,73.50
2023-03-24T02:46:50.163Z,73.84
2023-03-24T02:52:24.176Z,74.05
2023-03-24T02:58:01.032Z,74.80
2023-03-24T03:03:52.494Z,75.37
2023-03-24T03:09:21.847Z,75.52
2023-03-24T03:14:53.380Z,75.67
2023-03-24T03:20:23.526Z,75.70
2023-03-24T03:25:52.713Z,75.80
2023-03-24T03:31:24.095Z,75.93
2023-03-24T03:36:58.152Z,75.97
2023-03-24T03:42:23.881Z,76.13
2023-03-24T03:47:49.491Z,76.26
2023-03-24T03:53:17.760Z,76.27
2023-03-24T03:58:42.818Z,76.40
2023-03-24T04:04:30.259Z,76.60
2023-03-24T04:10:45.277Z,76.85
2023-03-24T04:16:23.432Z,76.78
2023-03-24T04:22:50.018Z,76.82
2023-03-24T04:28:16.044Z,76.80
2023-03-24T04:33:49.101Z,76.73
2023-03-24T04:39:18.530Z,76.83
2023-03-24T04:44:51.816Z,76.93
2023-03-24T04:50:46.070Z,77.01
2023-03-24T04:56:29.278Z,76.95
2023-03-24T05:02:07.787Z,76.79
2023-03-24T05:07:53.836Z,76.73
2023-03-24T05:13:19.377Z,76.79
2023-03-24T05:18:47.432Z,77.47
2023-03-24T05:24:12.952Z,77.89
2023-03-24T05:29:38.213Z,78.35
2023-03-24T05:35:04.407Z,78.36
2023-03-24T05:40:31.714Z,78.55
2023-03-24T05:46:08.176Z,78.77
2023-03-24T05:51:32.373Z,78.85
2023-03-24T05:57:02.627Z,79.01
2023-03-24T06:02:27.642Z,79.18
2023-03-24T06:07:58.934Z,79.21
2023-03-24T06:13:24.096Z,79.22
2023-03-24T06:18:52.874Z,79.31
2023-03-24T06:24:38.143Z,79.28
2023-03-24T06:30:07.226Z,79.31
2023-03-24T06:35:32.802Z,79.40
2023-03-24T06:41:03.152Z,79.36
2023-03-24T06:46:29.789Z,79.61
2023-03-24T06:51:54.652Z,79.84
2023-03-24T06:57:20.050Z,79.91
2023-03-24T07:03:04.269Z,80.07
2023-03-24T07:08:37.107Z,79.95
2023-03-24T07:14:09.906Z,79.66
2023-03-24T07:19:36.262Z,79.36
2023-03-24T07:25:20.434Z,78.95
2023-03-24T07:30:51.623Z,78.52
2023-03-24T07:36:19.427Z,78.24
2023-03-24T07:41:43.977Z,77.61
2023-03-24T07:47:29.150Z,77.11
2023-03-24T07:52:54.300Z,76.72
2023-03-24T07:58:19.051Z,75.94
2023-03-24T08:03:58.630Z,75.82
2023-03-24T08:09:44.108Z,75.43
2023-03-24T08:15:10.450Z,74.70
2023-03-24T08:25:59.014Z,73.85
2023-03-24T08:31:23.082Z,72.75
2023-03-24T08:36:47.788Z,72.15
2023-03-24T08:42:12.668Z,71.85
2023-03-24T08:47:37.709Z,71.63
2023-03-24T08:53:02.790Z,70.52
2023-03-24T08:58:27.363Z,69.38
2023-03-24T09:03:52.397Z,68.12
2023-03-24T09:09:16.836Z,66.56
2023-03-24T09:14:42.565Z,65.34
2023-03-24T09:20:12.166Z,65.42
2023-03-24T09:25:36.295Z,64.80
2023-03-24T09:31:03.197Z,63.93
2023-03-24T09:36:28.615Z,63.63
2023-03-24T09:41:56.478Z,62.46
2023-03-24T09:47:37.570Z,61.51
2023-03-24T09:53:23.166Z,60.82
2023-03-24T09:58:53.776Z,60.74
2023-03-24T10:04:21.656Z,59.21
2023-03-24T10:09:53.737Z,58.61
2023-03-24T10:15:37.108Z,59.11
2023-03-24T10:21:18.289Z,59.06
2023-03-24T10:26:55.724Z,58.20
2023-03-24T10:32:25.633Z,56.87
2023-03-24T10:37:52.728Z,56.24
2023-03-24T10:43:21.567Z,56.52
2023-03-24T10:48:48.637Z,57.44
2023-03-24T10:54:21.713Z,59.26
2023-03-24T10:59:58.270Z,60.06
2023-03-24T11:05:30.936Z,61.68
2023-03-24T11:10:56.709Z,62.47
2023-03-24T11:16:37.731Z,63.68
2023-03-24T11:22:06.109Z,64.31
2023-03-24T11:27:32.213Z,65.22
2023-03-24T11:32:58.745Z,65.76
2023-03-24T11:38:31.734Z,66.01
2023-03-24T11:44:23.073Z,66.22
2023-03-24T11:49:58.656Z,65.90
2023-03-24T11:55:42.734Z,65.88
2023-03-24T12:01:12.583Z,64.67
2023-03-24T12:06:57.317Z,64.53
2023-03-24T12:12:42.882Z,62.79
2023-03-24T12:18:16.268Z,61.12
2023-03-24T12:24:02.718Z,60.86
2023-03-24T12:29:54.870Z,58.66
2023-03-24T12:35:32.409Z,57.57
2023-03-24T12:41:25.300Z,57.78
2023-03-24T12:47:22.835Z,58.06
2023-03-24T12:58:43.362Z,57.34
2023-03-24T13:04:21.511Z,57.71
2023-03-24T13:09:46.842Z,57.43
2023-03-24T13:15:17.938Z,57.04
2023-03-24T13:20:49.987Z,57.37
2023-03-24T13:26:27.207Z,57.29
2023-03-24T13:32:24.603Z,57.37
2023-03-24T13:37:57.843Z,58.63
2023-03-24T13:43:30.041Z,59.04
2023-03-24T13:49:00.624Z,59.95
2023-03-24T13:54:28.058Z,59.82
2023-03-24T14:00:19.297Z,59.74
2023-03-24T14:06:00.096Z,59.12
2023-03-24T14:11:38.758Z,59.28
2023-03-24T14:17:07.081Z,59.45
2023-03-24T14:22:36.646Z,59.51
2023-03-24T14:28:18.200Z,59.79
2023-03-24T14:33:54.699Z,59.82
2023-03-24T14:39:28.549Z,59.73
2023-03-24T14:44:53.985Z,60.20
2023-03-24T14:50:22.880Z,60.45
2023-03-24T14:55:49.229Z,60.50
2023-03-24T15:01:15.072Z,60.83
2023-03-24T15:06:47.359Z,60.77
2023-03-24T15:12:11.884Z,60.90
2023-03-24T15:17:36.164Z,60.19
2023-03-24T15:23:09.284Z,59.52
2023-03-24T15:28:34.101Z,59.39
2023-03-24T15:34:25.581Z,59.99
2023-03-24T15:39:57.045Z,60.02
2023-03-24T15:45:51.033Z,59.55
2023-03-24T15:51:17.400Z,58.84
2023-03-24T15:56:42.799Z,58.78
2023-03-24T16:02:19.132Z,60.82
2023-03-24T16:07:43.587Z,69.30
2023-03-24T16:13:16.223Z,72.93
2023-03-24T16:18:46.600Z,75.70
2023-03-24T16:24:11.191Z,77.43
2023-03-24T16:29:37.380Z,78.41
2023-03-24T16:35:03.233Z,79.54
2023-03-24T16:40:36.677Z,80.69
2023-03-24T16:46:01.895Z,81.11
2023-03-24T16:51:27.588Z,81.95
2023-03-24T16:56:52.023Z,82.11
2023-03-24T17:02:19.927Z,82.25
2023-03-24T17:07:44.843Z,82.81
2023-03-24T17:13:08.922Z,82.69
2023-03-24T17:18:33.612Z,82.07
2023-03-24T17:23:57.598Z,81.76
2023-03-24T17:29:23.151Z,81.80
2023-03-24T17:34:48.422Z,81.91
2023-03-24T17:40:15.839Z,82.28
2023-03-24T17:45:43.337Z,82.65
2023-03-24T17:51:07.797Z,82.76
2023-03-24T17:56:32.527Z,83.05
2023-03-24T18:01:56.322Z,83.03
2023-03-24T18:07:21.400Z,83.48
2023-03-24T18:12:46.604Z,83.53
2023-03-24T18:18:10.866Z,83.90
2023-03-24T18:23:37.228Z,84.34
2023-03-24T18:29:01.424Z,84.40
2023-03-24T18:34:26.964Z,84.68
2023-03-24T18:39:51.975Z,84.80
2023-03-24T18:45:19.919Z,84.67
2023-03-24T18:50:44.189Z,84.83
2023-03-24T18:56:09.127Z,84.81
2023-03-24T19:01:33.584Z,85.07
2023-03-24T19:06:57.849Z,85.14
2023-03-24T19:12:22.808Z,85.27
2023-03-24T19:17:47.992Z,85.77
2023-03-24T19:23:33.580Z,85.91
2023-03-24T19:29:04.108Z,85.51
2023-03-24T19:34:28.744Z,84.89
2023-03-24T19:39:54.512Z,84.47
2023-03-24T19:45:21.288Z,84.07
2023-03-24T19:50:47.014Z,83.83
2023-03-24T19:56:13.509Z,83.47
2023-03-24T20:01:38.577Z,83.20
2023-03-24T20:07:03.761Z,82.89
2023-03-24T20:12:28.244Z,82.54
2023-03-24T20:17:56.501Z,82.04
2023-03-24T20:23:22.717Z,81.60
2023-03-24T20:28:48.403Z,81.31
2023-03-24T20:34:12.434Z,81.00
2023-03-24T20:39:36.833Z,80.88
2023-03-24T20:45:01.370Z,80.59
2023-03-24T20:50:28.335Z,80.74
2023-03-24T20:56:07.080Z,80.55
2023-03-24T21:01:36.485Z,80.52
2023-03-24T21:07:01.520Z,80.71
2023-03-24T21:12:25.954Z,80.68
2023-03-24T21:17:51.000Z,80.64
2023-03-24T21:23:19.211Z,80.64
2023-03-24T21:28:44.900Z,80.53
2023-03-24T21:34:09.438Z,80.84
2023-03-24T21:39:34.015Z,80.98
2023-03-24T21:44:58.174Z,81.47
2023-03-24T21:50:26.081Z,81.67
2023-03-24T21:56:05.281Z,81.68
2023-03-24T22:01:31.387Z,81.48
2023-03-24T22:06:56.725Z,81.46
2023-03-24T22:12:21.103Z,81.29
2023-03-24T22:17:45.425Z,81.28
2023-03-24T22:23:09.918Z,81.38
2023-03-24T22:28:36.568Z,81.13
2023-03-24T22:34:01.572Z,81.05
2023-03-24T22:39:26.354Z,80.84
2023-03-24T22:44:50.516Z,80.68
2023-03-24T22:50:14.837Z,80.45
2023-03-24T22:55:39.628Z,80.49
2023-03-24T23:01:06.698Z,79.96
2023-03-24T23:06:31.401Z,79.82
2023-03-24T23:11:55.514Z,79.52
2023-03-24T23:17:19.852Z,79.40
2023-03-24T23:22:43.566Z,79.13
2023-03-24T23:28:07.864Z,79.28
2023-03-24T23:33:33.430Z,79.24
2023-03-24T23:38:57.944Z,79.07
2023-03-24T23:44:21.849Z,78.58
2023-03-24T23:49:45.909Z,78.55
2023-03-24T23:55:13.473Z,78.44
